Time;durP1;ratioP1;P1;durP2;ratioP2;P2;SDS_P1;SDS_P2;PMS_P1;PMS_P2;Temp;Humidity;BMP_temperature;BMP_pressure;BME280_temperature;BME280_humidity;BME280_pressure;Samples;Min_cycle;Max_cycle;Signal;HPM_P1;HPM_P2
2022/04/28 00:00:02;;;;;;;2.15;0.80;;;8.60;99.90;;;;;;4955965;29;20056;-85
2022/04/28 00:02:28;;;;;;;1.73;0.80;;;8.00;99.90;;;;;;4956617;29;20063;-85
2022/04/28 00:04:55;;;;;;;2.42;0.98;;;8.00;99.90;;;;;;4955677;29;20102;-85
2022/04/28 00:07:21;;;;;;;6.20;1.27;;;8.40;99.90;;;;;;4956206;29;20151;-85
2022/04/28 00:09:46;;;;;;;5.38;1.23;;;8.80;99.90;;;;;;4938292;29;20118;-85
2022/04/28 00:12:12;;;;;;;7.90;1.70;;;8.00;99.90;;;;;;4955948;29;20056;-85
2022/04/28 00:14:38;;;;;;;2.80;0.73;;;8.10;99.90;;;;;;4940255;29;20083;-85
2022/04/28 00:17:04;;;;;;;2.45;0.80;;;8.50;99.90;;;;;;4956354;29;20050;-86
2022/04/28 00:19:30;;;;;;;2.10;0.77;;;8.00;99.90;;;;;;4938595;29;20047;-85
2022/04/28 00:21:56;;;;;;;7.43;1.33;;;8.00;99.90;;;;;;4938087;29;20065;-85
2022/04/28 00:24:21;;;;;;;4.82;1.00;;;8.20;99.90;;;;;;4938458;29;20070;-85
2022/04/28 00:26:47;;;;;;;4.82;1.00;;;8.80;99.90;;;;;;4956109;29;20050;-86
2022/04/28 00:29:13;;;;;;;2.20;0.80;;;8.90;99.90;;;;;;4938603;29;20399;-86
2022/04/28 00:31:38;;;;;;;2.70;0.70;;;8.60;99.90;;;;;;4938917;29;20048;-85
2022/04/28 00:34:04;;;;;;;3.13;0.70;;;8.00;99.90;;;;;;4922531;29;20066;-85
2022/04/28 00:36:30;;;;;;;2.05;0.80;;;7.40;99.90;;;;;;4955258;29;20051;-85
2022/04/28 00:38:56;;;;;;;3.80;0.68;;;8.00;99.90;;;;;;4938417;29;20495;-85
2022/04/28 00:41:21;;;;;;;2.83;0.75;;;8.90;99.90;;;;;;4955809;29;20047;-85
2022/04/28 00:43:52;;;;;;;2.45;0.80;;;8.10;99.90;;;;;;4954843;28;20399;-86
2022/04/28 00:46:19;;;;;;;1.27;0.73;;;8.00;99.90;;;;;;4955128;29;20051;-86
2022/04/28 00:51:34;;;;;;;1.30;0.65;;;8.90;99.90;;;;;;4955442;28;20059;-85
2022/04/28 00:54:02;;;;;;;3.20;1.20;;;8.30;99.90;;;;;;4931366;29;20043;-85
2022/04/28 00:56:30;;;;;;;5.82;1.27;;;8.60;99.90;;;;;;4955107;29;20035;-85
2022/04/28 00:58:56;;;;;;;5.10;1.80;;;8.10;99.90;;;;;;4954848;29;20066;-85
2022/04/28 01:01:22;;;;;;;6.13;1.50;;;9.00;99.90;;;;;;4955694;29;20106;-85
2022/04/28 01:03:48;;;;;;;4.07;0.90;;;8.90;99.90;;;;;;4954515;29;20381;-86
2022/04/28 01:06:15;;;;;;;0.95;0.68;;;7.90;99.90;;;;;;4955361;29;20043;-85
2022/04/28 01:08:41;;;;;;;1.65;0.73;;;8.90;99.90;;;;;;4938021;29;20042;-85
2022/04/28 01:11:07;;;;;;;3.85;0.82;;;8.80;99.90;;;;;;4937807;29;20083;-86
2022/04/28 01:13:33;;;;;;;3.25;1.00;;;8.00;99.90;;;;;;4955323;29;20039;-86
2022/04/28 01:16:00;;;;;;;1.90;0.88;;;8.60;99.90;;;;;;4937633;29;20066;-85
2022/04/28 01:18:26;;;;;;;4.00;1.02;;;7.90;99.90;;;;;;4954826;29;20043;-85
2022/04/28 01:20:51;;;;;;;3.42;0.75;;;7.90;99.90;;;;;;4936674;28;20057;-85
2022/04/28 01:23:20;;;;;;;1.80;1.08;;;7.90;99.90;;;;;;4971641;28;20078;-86
2022/04/28 01:25:46;;;;;;;4.10;0.80;;;8.60;99.90;;;;;;4974629;28;20047;-85
2022/04/28 01:28:13;;;;;;;3.45;1.05;;;7.80;99.90;;;;;;4972058;28;20030;-85
2022/04/28 01:30:38;;;;;;;1.67;0.70;;;8.30;99.90;;;;;;4974130;28;20038;-86
2022/04/28 01:33:05;;;;;;;2.25;0.77;;;8.20;99.90;;;;;;4966068;28;20045;-86
2022/04/28 01:35:31;;;;;;;2.08;1.00;;;7.90;99.90;;;;;;4949456;28;20082;-85
2022/04/28 01:37:57;;;;;;;0.90;0.73;;;7.90;99.90;;;;;;4957081;28;20097;-87
2022/04/28 01:40:23;;;;;;;2.28;0.70;;;8.30;99.90;;;;;;4972328;28;20494;-85
2022/04/28 01:42:50;;;;;;;3.53;0.80;;;7.90;99.90;;;;;;4957130;28;20053;-86
2022/04/28 01:45:16;;;;;;;3.17;0.70;;;8.30;99.90;;;;;;4957002;28;20121;-85
2022/04/28 01:47:42;;;;;;;3.22;1.10;;;8.40;99.90;;;;;;4974308;28;20039;-85
2022/04/28 01:50:10;;;;;;;3.45;0.63;;;7.90;99.90;;;;;;4964787;28;20058;-86
2022/04/28 01:55:22;;;;;;;2.63;0.88;;;7.70;99.90;;;;;;4969350;28;20085;-85
2022/04/28 01:57:48;;;;;;;0.63;0.50;;;8.80;99.90;;;;;;4950940;28;20066;-85
2022/04/28 02:00:14;;;;;;;1.33;0.60;;;8.60;99.90;;;;;;4972359;28;20042;-85
2022/04/28 02:02:41;;;;;;;1.08;0.60;;;7.90;99.90;;;;;;4973672;28;20104;-85
2022/04/28 02:05:09;;;;;;;1.20;0.60;;;8.30;99.90;;;;;;4974093;28;20042;-85
2022/04/28 02:07:35;;;;;;;3.08;0.80;;;7.90;99.90;;;;;;4973245;28;20057;-85
2022/04/28 02:10:04;;;;;;;1.60;0.60;;;8.50;99.90;;;;;;4972968;28;20520;-85
2022/04/28 02:12:30;;;;;;;3.58;0.90;;;7.90;99.90;;;;;;4952812;28;20050;-85
2022/04/28 02:14:56;;;;;;;2.08;0.80;;;8.80;99.90;;;;;;4962810;28;20039;-85
2022/04/28 02:17:24;;;;;;;2.67;0.70;;;8.00;99.90;;;;;;4955523;28;20121;-85
2022/04/28 02:19:49;;;;;;;2.15;0.90;;;8.60;99.90;;;;;;4965846;28;20050;-85
2022/04/28 02:22:16;;;;;;;3.28;1.20;;;8.00;99.90;;;;;;4960189;28;20104;-85
2022/04/28 02:24:41;;;;;;;1.58;0.90;;;8.10;99.90;;;;;;4973879;28;20502;-85
2022/04/28 02:27:08;;;;;;;3.17;0.80;;;8.40;99.90;;;;;;4957228;28;20041;-85
2022/04/28 02:29:34;;;;;;;1.08;0.70;;;8.50;99.90;;;;;;4957912;28;20047;-85
2022/04/28 02:32:00;;;;;;;2.67;0.80;;;7.90;99.90;;;;;;4964641;28;20454;-85
2022/04/28 02:34:25;;;;;;;3.45;0.98;;;7.90;99.90;;;;;;4955863;28;20050;-86
2022/04/28 02:36:51;;;;;;;1.60;0.80;;;8.70;99.90;;;;;;4969454;28;20115;-85
2022/04/28 02:39:18;;;;;;;1.90;0.77;;;8.10;99.90;;;;;;4947016;28;20069;-86
2022/04/28 02:41:45;;;;;;;5.13;1.20;;;7.90;99.90;;;;;;4967330;28;20047;-86
2022/04/28 02:44:14;;;;;;;3.20;0.80;;;8.30;99.90;;;;;;4961649;28;20394;-86
2022/04/28 02:46:42;;;;;;;1.73;0.70;;;7.90;99.90;;;;;;4932683;28;20493;-86
2022/04/28 02:49:09;;;;;;;1.40;0.50;;;8.80;99.90;;;;;;4972464;28;20050;-86
2022/04/28 02:51:35;;;;;;;3.80;1.23;;;8.70;99.90;;;;;;4966115;28;20060;-86
2022/04/28 02:54:02;;;;;;;4.55;1.27;;;8.80;99.90;;;;;;4955456;28;20542;-86
2022/04/28 02:56:28;;;;;;;2.95;0.88;;;8.00;99.90;;;;;;4963129;28;20057;-87
2022/04/28 02:58:54;;;;;;;3.08;0.90;;;8.70;99.90;;;;;;4964964;28;20031;-86
2022/04/28 03:01:20;;;;;;;1.63;1.17;;;8.00;99.90;;;;;;4971820;28;20047;-86
2022/04/28 03:03:46;;;;;;;4.30;1.40;;;8.70;99.90;;;;;;4968121;28;20040;-86
2022/04/28 03:11:41;;;;;;;3.78;0.73;;;7.90;99.90;;;;;;4975696;28;20426;-86
2022/04/28 03:14:12;;;;;;;1.70;0.80;;;8.80;99.90;;;;;;4962934;28;20056;-86
2022/04/28 03:16:38;;;;;;;3.17;0.73;;;7.90;99.90;;;;;;4943439;28;20055;-85
2022/04/28 03:19:04;;;;;;;2.35;0.65;;;7.80;99.90;;;;;;4975295;28;20090;-86
2022/04/28 03:21:31;;;;;;;3.30;1.02;;;7.90;99.90;;;;;;4975081;28;20062;-86
2022/04/28 03:23:56;;;;;;;2.83;0.90;;;7.80;99.90;;;;;;4976730;28;20051;-86
2022/04/28 03:26:22;;;;;;;0.88;0.60;;;7.80;99.90;;;;;;4968385;28;20122;-86
2022/04/28 03:28:48;;;;;;;2.42;0.82;;;8.80;99.90;;;;;;4958549;28;20043;-86
2022/04/28 03:31:13;;;;;;;3.15;1.10;;;8.50;99.90;;;;;;4976681;28;20517;-85
2022/04/28 03:33:39;;;;;;;4.15;1.20;;;8.20;99.90;;;;;;4974446;28;20053;-86
2022/04/28 03:36:50;;;;;;;4.60;1.63;;;7.90;99.90;;;;;;4969822;28;20550;-86
2022/04/28 03:38:51;;;;;;;3.63;1.40;;;7.50;99.90;;;;;;4975325;28;20074;-87
2022/04/28 03:41:17;;;;;;;2.83;0.90;;;8.70;99.90;;;;;;4959146;28;20065;-86
2022/04/28 03:43:44;;;;;;;3.70;0.85;;;7.90;99.90;;;;;;4974179;28;20090;-86
2022/04/28 03:46:11;;;;;;;2.83;0.95;;;8.00;99.90;;;;;;4948757;28;20442;-86
2022/04/28 03:48:37;;;;;;;3.00;1.00;;;7.90;99.90;;;;;;4975865;28;20039;-87
2022/04/28 03:51:04;;;;;;;4.25;2.95;;;8.30;99.90;;;;;;4959157;28;20462;-87
2022/04/28 03:53:30;;;;;;;4.72;1.58;;;7.90;99.90;;;;;;4968345;28;20050;-88
2022/04/28 03:55:57;;;;;;;1.70;1.00;;;8.80;99.90;;;;;;4963553;28;20043;-86
2022/04/28 03:58:25;;;;;;;5.50;1.92;;;8.20;99.90;;;;;;4974058;28;20450;-87
2022/04/28 04:00:51;;;;;;;3.88;1.50;;;7.70;99.90;;;;;;4975291;28;20098;-87
2022/04/28 04:03:19;;;;;;;4.63;1.85;;;8.60;99.90;;;;;;4968324;28;20086;-86
2022/04/28 04:05:45;;;;;;;6.78;2.17;;;7.90;99.90;;;;;;4963780;28;20049;-86
2022/04/28 04:08:12;;;;;;;4.88;2.17;;;8.70;99.90;;;;;;4954044;28;20447;-87
2022/04/28 04:10:37;;;;;;;4.75;1.70;;;7.90;99.90;;;;;;4971999;28;20114;-87
2022/04/28 04:13:03;;;;;;;2.47;1.27;;;7.80;99.90;;;;;;4973815;28;20111;-87
2022/04/28 04:15:29;;;;;;;2.20;0.90;;;7.70;99.90;;;;;;4964171;28;20492;-86
2022/04/28 04:17:55;;;;;;;4.78;1.30;;;7.60;99.90;;;;;;4973290;28;20039;-86
2022/04/28 04:20:20;;;;;;;2.53;1.08;;;6.90;99.90;;;;;;4967615;28;20491;-86
2022/04/28 04:22:46;;;;;;;5.93;1.63;;;7.70;99.90;;;;;;4967406;28;20396;-85
2022/04/28 04:25:12;;;;;;;6.60;1.40;;;7.80;99.90;;;;;;4963759;28;20105;-86
2022/04/28 04:27:38;;;;;;;3.25;0.90;;;8.10;99.90;;;;;;4975221;28;20570;-85
2022/04/28 04:32:17;;;;;;;4.07;1.17;;;7.60;99.90;;;;;;4957786;28;20155;-86
2022/04/28 04:32:50;;;;;;;3.35;1.20;;;7.30;99.90;;;;;;4974498;28;20043;-86
2022/04/28 04:35:16;;;;;;;1.73;0.80;;;8.00;99.90;;;;;;4963605;28;20053;-86
2022/04/28 04:37:43;;;;;;;3.15;1.17;;;7.10;99.90;;;;;;4968220;28;20090;-85
2022/04/28 04:40:11;;;;;;;2.25;0.93;;;7.10;99.90;;;;;;4949451;28;20059;-86
2022/04/28 04:42:37;;;;;;;2.22;0.82;;;7.10;99.90;;;;;;4958300;28;20039;-86
2022/04/28 04:45:03;;;;;;;4.10;1.00;;;6.90;99.90;;;;;;4961214;28;20058;-86
2022/04/28 04:47:29;;;;;;;2.53;0.90;;;6.90;99.90;;;;;;4957482;28;20105;-86
2022/04/28 04:49:55;;;;;;;2.38;0.70;;;7.10;99.90;;;;;;4970171;28;20043;-86
2022/04/28 04:52:20;;;;;;;2.97;1.02;;;7.40;99.90;;;;;;4974707;28;20491;-86
2022/04/28 04:54:46;;;;;;;2.17;0.70;;;7.50;99.90;;;;;;4962386;28;20125;-86
2022/04/28 04:57:12;;;;;;;1.95;0.70;;;6.80;99.90;;;;;;4949076;28;20058;-87
2022/04/28 04:59:37;;;;;;;1.92;0.73;;;6.80;99.90;;;;;;4957583;28;20111;-86
2022/04/28 05:02:03;;;;;;;4.47;0.98;;;7.10;99.90;;;;;;4966376;28;20446;-87
2022/04/28 05:04:29;;;;;;;3.45;0.60;;;6.70;99.90;;;;;;4975648;28;20042;-87
2022/04/28 05:06:55;;;;;;;2.80;0.60;;;7.30;99.90;;;;;;4966014;28;20055;-89
2022/04/28 05:09:24;;;;;;;1.70;0.80;;;6.80;99.90;;;;;;4962579;28;20055;-88
2022/04/28 05:11:49;;;;;;;2.03;0.60;;;6.80;99.90;;;;;;4964408;28;20102;-86
2022/04/28 05:14:15;;;;;;;1.77;0.68;;;7.30;99.90;;;;;;4947248;28;20051;-86
2022/04/28 05:16:41;;;;;;;1.38;0.70;;;6.70;99.90;;;;;;4974505;28;20046;-86
2022/04/28 05:19:06;;;;;;;1.13;0.55;;;7.50;99.90;;;;;;4949066;28;20130;-85
2022/04/28 05:21:32;;;;;;;2.25;0.55;;;7.90;99.90;;;;;;4968135;28;20058;-85
2022/04/28 05:23:58;;;;;;;0.57;0.57;;;7.80;99.90;;;;;;4974416;28;20088;-85
2022/04/28 05:26:23;;;;;;;4.53;0.73;;;7.40;99.90;;;;;;4973099;28;20402;-86
2022/04/28 05:28:49;;;;;;;1.63;0.70;;;7.70;99.90;;;;;;4957089;28;20454;-86
2022/04/28 05:31:15;;;;;;;3.60;1.02;;;7.00;99.90;;;;;;4956541;28;20049;-87
2022/04/28 05:33:42;;;;;;;3.78;0.70;;;7.30;99.90;;;;;;4950300;28;20549;-85
2022/04/28 05:36:09;;;;;;;5.05;0.88;;;7.20;99.90;;;;;;4972759;28;20131;-85
2022/04/28 05:38:37;;;;;;;5.05;1.08;;;6.80;99.90;;;;;;4970763;28;20047;-87
2022/04/28 05:41:03;;;;;;;3.42;1.23;;;7.80;99.90;;;;;;4969964;28;20046;-86
2022/04/28 05:46:15;;;;;;;4.13;1.15;;;7.80;99.90;;;;;;4970233;28;20070;-87
2022/04/28 05:48:41;;;;;;;2.83;0.90;;;7.90;99.90;;;;;;4946412;28;20125;-86
2022/04/28 05:51:07;;;;;;;4.82;1.20;;;7.90;99.90;;;;;;4973977;28;20042;-86
2022/04/28 05:53:32;;;;;;;7.30;1.10;;;8.70;99.90;;;;;;4954643;28;20051;-87
2022/04/28 05:55:58;;;;;;;7.13;1.15;;;8.90;99.90;;;;;;4967889;28;20117;-85
2022/04/28 05:58:24;;;;;;;3.20;0.80;;;8.90;99.90;;;;;;4972817;28;20117;-87
2022/04/28 06:00:49;;;;;;;7.70;0.88;;;9.30;99.90;;;;;;4967627;28;20049;-86
2022/04/28 06:03:15;;;;;;;5.70;1.02;;;9.50;99.90;;;;;;4974131;28;20046;-88
2022/04/28 06:05:41;;;;;;;3.22;0.90;;;8.60;99.90;;;;;;4959486;28;20403;-87
2022/04/28 06:08:07;;;;;;;4.25;1.33;;;8.70;99.90;;;;;;4956853;28;20054;-86
2022/04/28 06:10:33;;;;;;;2.08;0.90;;;8.80;99.90;;;;;;4966659;28;20042;-86
2022/04/28 06:12:58;;;;;;;3.60;0.82;;;8.90;99.90;;;;;;4958877;28;20399;-89
2022/04/28 06:15:24;;;;;;;7.15;0.90;;;9.50;99.90;;;;;;4975319;28;20086;-88
2022/04/28 06:17:50;;;;;;;3.92;0.70;;;9.00;99.90;;;;;;4974094;28;20767;-88
2022/04/28 06:20:16;;;;;;;3.30;0.68;;;9.20;99.90;;;;;;4957667;28;20078;-87
2022/04/28 06:22:42;;;;;;;4.80;1.20;;;9.80;99.90;;;;;;4951780;28;20063;-88
2022/04/28 06:25:08;;;;;;;3.63;0.60;;;9.40;99.90;;;;;;4969099;29;20055;-87
2022/04/28 06:27:34;;;;;;;4.03;0.68;;;9.50;99.90;;;;;;4953192;28;20054;-88
2022/04/28 06:30:00;;;;;;;3.75;0.52;;;9.60;99.90;;;;;;4959844;29;20055;-86
2022/04/28 06:32:26;;;;;;;2.83;0.80;;;9.60;99.90;;;;;;4968966;28;20074;-87
2022/04/28 06:34:52;;;;;;;6.03;1.02;;;9.80;99.90;;;;;;4972667;28;20105;-90
2022/04/28 06:37:17;;;;;;;4.60;0.70;;;9.80;99.90;;;;;;4991185;28;20042;-89
2022/04/28 06:39:43;;;;;;;4.82;0.60;;;10.10;99.90;;;;;;4952200;28;20049;-86
2022/04/28 06:42:10;;;;;;;6.93;0.50;;;10.10;99.90;;;;;;4949218;28;20076;-86
2022/04/28 06:44:36;;;;;;;3.38;0.70;;;10.10;99.90;;;;;;4974649;28;20472;-88
2022/04/28 06:47:05;;;;;;;5.68;0.63;;;10.40;99.90;;;;;;4970700;28;20500;-86
2022/04/28 06:49:33;;;;;;;3.65;0.60;;;10.40;99.90;;;;;;4970415;28;20451;-86
2022/04/28 06:55:39;;;;;;;5.63;0.60;;;10.40;99.90;;;;;;4961756;28;20502;-86
2022/04/28 06:58:05;;;;;;;5.03;0.60;;;10.50;99.90;;;;;;4949563;28;20055;-86
2022/04/28 07:00:31;;;;;;;6.78;1.00;;;10.80;99.90;;;;;;4972675;28;20057;-85
2022/04/28 07:02:57;;;;;;;7.72;0.65;;;11.10;99.90;;;;;;4947941;28;20045;-87
2022/04/28 07:05:22;;;;;;;0.70;0.40;;;10.70;99.90;;;;;;4972793;28;20109;-86
2022/04/28 07:07:49;;;;;;;3.95;0.80;;;10.70;99.90;;;;;;4972545;28;20039;-88
2022/04/28 07:10:15;;;;;;;5.53;0.70;;;10.80;99.90;;;;;;4973077;28;20498;-88
2022/04/28 07:12:41;;;;;;;3.55;0.60;;;11.10;99.90;;;;;;4955224;28;20062;-85
2022/04/28 07:15:07;;;;;;;4.82;0.57;;;11.20;99.90;;;;;;4972055;28;20050;-89
2022/04/28 07:17:32;;;;;;;2.22;0.90;;;11.40;99.90;;;;;;4959681;28;20047;-89
2022/04/28 07:19:58;;;;;;;4.70;0.80;;;11.50;99.90;;;;;;4937481;28;20058;-90
2022/04/28 07:22:24;;;;;;;8.10;0.98;;;11.70;99.90;;;;;;4961130;28;20193;-94
2022/04/28 07:24:52;;;;;;;3.75;0.50;;;11.50;99.90;;;;;;4948968;28;20051;-90
2022/04/28 07:27:18;;;;;;;4.45;0.65;;;11.40;99.90;;;;;;4955059;28;20225;-84
2022/04/28 07:29:44;;;;;;;2.88;0.43;;;11.50;99.90;;;;;;4969485;28;20126;-88
2022/04/28 07:32:16;;;;;;;5.93;1.02;;;11.60;99.90;;;;;;4938304;29;20454;-90
2022/04/28 07:34:42;;;;;;;4.85;0.50;;;11.50;99.90;;;;;;4952239;28;20049;-86
2022/04/28 07:37:08;;;;;;;3.70;0.50;;;11.40;99.90;;;;;;4961183;28;20046;-85
2022/04/28 07:39:33;;;;;;;2.38;0.50;;;11.40;99.90;;;;;;4973737;28;20120;-86
2022/04/28 07:41:59;;;;;;;1.63;0.45;;;11.60;99.90;;;;;;4973144;28;20038;-90
2022/04/28 07:44:25;;;;;;;4.38;0.60;;;11.30;99.90;;;;;;4952291;28;20039;-92
2022/04/28 07:46:51;;;;;;;6.07;0.77;;;11.20;99.90;;;;;;4971768;28;20384;-86
2022/04/28 07:49:17;;;;;;;3.05;0.60;;;11.40;99.90;;;;;;4972436;28;20043;-87
2022/04/28 07:51:45;;;;;;;3.70;0.60;;;11.30;99.90;;;;;;4972471;28;20038;-91
2022/04/28 07:54:11;;;;;;;9.30;0.85;;;11.50;99.90;;;;;;4964347;28;20046;-92
2022/04/28 07:56:41;;;;;;;1.42;0.60;;;11.30;99.90;;;;;;4972284;28;20105;-89
2022/04/28 07:59:09;;;;;;;3.05;0.95;;;11.20;99.90;;;;;;4961775;28;20054;-89
2022/04/28 08:01:35;;;;;;;2.03;0.80;;;11.20;99.90;;;;;;4953615;29;20116;-90
2022/04/28 08:04:00;;;;;;;5.63;1.42;;;11.30;99.90;;;;;;4955254;28;20054;-89
2022/04/28 08:06:26;;;;;;;4.65;0.80;;;11.40;99.90;;;;;;4959045;28;20039;-89
2022/04/28 08:08:52;;;;;;;10.93;0.90;;;11.20;99.90;;;;;;4976184;28;20101;-88
2022/04/28 08:11:17;;;;;;;5.53;1.08;;;11.20;99.90;;;;;;4956931;28;20418;-89
2022/04/28 08:13:43;;;;;;;9.77;1.58;;;11.70;99.90;;;;;;4962618;28;20518;-87
2022/04/28 08:16:09;;;;;;;6.65;1.20;;;11.30;99.90;;;;;;4967836;28;20078;-87
2022/04/28 08:18:37;;;;;;;10.68;1.75;;;11.70;99.90;;;;;;4959531;28;20448;-89
2022/04/28 08:21:03;;;;;;;6.25;2.67;;;11.30;99.90;;;;;;4975381;28;20046;-90
2022/04/28 08:23:29;;;;;;;3.97;0.93;;;11.30;99.90;;;;;;4957220;28;20061;-87
2022/04/28 08:25:55;;;;;;;4.47;0.98;;;11.40;99.90;;;;;;4950631;28;20129;-88
2022/04/28 08:28:22;;;;;;;11.73;1.52;;;11.40;99.90;;;;;;4955967;28;20079;-88
2022/04/28 08:30:48;;;;;;;3.67;1.10;;;11.40;99.90;;;;;;4964697;28;20042;-89
2022/04/28 08:33:13;;;;;;;5.45;1.00;;;11.40;99.90;;;;;;4955998;28;20064;-92
2022/04/28 08:35:39;;;;;;;4.18;0.98;;;11.40;99.90;;;;;;4968903;28;20039;-89
2022/04/28 08:38:05;;;;;;;4.70;1.50;;;11.50;99.90;;;;;;4972845;28;20082;-90
2022/04/28 08:40:32;;;;;;;10.75;1.20;;;11.50;99.90;;;;;;4967504;28;20427;-89
2022/04/28 08:43:02;;;;;;;3.50;1.00;;;11.70;99.90;;;;;;4974833;28;20507;-92
2022/04/28 08:45:37;;;;;;;5.32;0.80;;;12.00;99.90;;;;;;4975234;28;20093;-86
2022/04/28 08:48:03;;;;;;;3.33;1.08;;;11.50;99.90;;;;;;4957334;28;20142;-87
2022/04/28 08:50:29;;;;;;;9.98;1.00;;;11.40;99.90;;;;;;4965873;28;20224;-85
2022/04/28 08:52:55;;;;;;;4.00;0.90;;;11.50;99.90;;;;;;4973997;28;20051;-87
2022/04/28 08:55:21;;;;;;;4.13;0.93;;;11.40;99.90;;;;;;4958708;28;20042;-84
2022/04/28 08:57:47;;;;;;;4.40;0.70;;;11.40;99.90;;;;;;4973578;28;20101;-84
2022/04/28 09:00:13;;;;;;;7.65;0.90;;;12.10;99.90;;;;;;4966740;28;20118;-83
2022/04/28 09:02:39;;;;;;;2.83;1.02;;;11.60;99.90;;;;;;4974216;28;20074;-82
2022/04/28 09:05:08;;;;;;;7.22;1.10;;;11.60;99.90;;;;;;4974701;28;20074;-91
2022/04/28 09:07:40;;;;;;;4.75;0.80;;;11.70;99.90;;;;;;4968581;28;20491;-88
2022/04/28 09:10:31;;;;;;;3.38;0.73;;;11.70;99.90;;;;;;4955652;28;20054;-87
2022/04/28 09:15:47;;;;;;;4.80;0.77;;;11.90;99.90;;;;;;4877073;29;20445;-84
2022/04/28 09:18:14;;;;;;;8.43;1.38;;;11.90;99.90;;;;;;4877049;29;20052;-88
2022/04/28 09:20:42;;;;;;;5.40;0.77;;;11.90;99.90;;;;;;4862921;29;20112;-82
2022/04/28 09:23:10;;;;;;;9.30;1.23;;;12.00;99.90;;;;;;4876040;29;20049;-83
2022/04/28 09:25:36;;;;;;;4.38;0.90;;;11.90;99.90;;;;;;4876988;29;20057;-84
2022/04/28 09:28:05;;;;;;;4.68;0.70;;;11.90;99.90;;;;;;4871486;29;20128;-85
2022/04/28 09:30:35;;;;;;;7.32;0.88;;;11.90;99.90;;;;;;4868135;29;20490;-84
2022/04/28 09:33:08;;;;;;;8.73;1.02;;;12.00;99.90;;;;;;4877091;29;20075;-94
2022/04/28 09:35:34;;;;;;;6.57;0.82;;;12.10;99.90;;;;;;4853639;29;20096;-88
2022/04/28 09:37:59;;;;;;;3.40;0.70;;;12.00;99.90;;;;;;4874685;29;20092;-81
2022/04/28 09:43:09;;;;;;;3.28;0.80;;;12.10;99.90;;;;;;4872113;29;20105;-89
2022/04/28 09:45:38;;;;;;;5.15;0.82;;;12.10;99.90;;;;;;4876934;29;20049;-86
2022/04/28 09:48:05;;;;;;;3.33;0.60;;;12.20;99.90;;;;;;4878031;29;20051;-90
2022/04/28 09:50:31;;;;;;;3.40;0.73;;;12.10;99.90;;;;;;4941109;28;20183;-82
2022/04/28 09:53:05;;;;;;;6.55;0.85;;;12.00;99.90;;;;;;4966183;28;20035;-81
2022/04/28 09:55:32;;;;;;;4.03;0.90;;;12.10;99.90;;;;;;4972935;28;20069;-85
2022/04/28 09:57:58;;;;;;;2.58;0.50;;;12.00;99.90;;;;;;4973663;28;20039;-85
2022/04/28 10:00:24;;;;;;;5.85;0.60;;;12.00;99.90;;;;;;4972942;28;20050;-83
2022/04/28 10:02:49;;;;;;;4.28;0.80;;;12.00;99.90;;;;;;4965818;28;21643;-84
2022/04/28 10:05:16;;;;;;;3.33;0.70;;;12.00;99.90;;;;;;4973701;28;20039;-84
2022/04/28 10:07:42;;;;;;;5.70;0.90;;;12.10;99.90;;;;;;4974476;28;20038;-83
2022/04/28 10:10:08;;;;;;;3.33;0.80;;;12.10;99.90;;;;;;4977299;28;20058;-83
2022/04/28 10:12:35;;;;;;;4.93;0.70;;;12.20;99.90;;;;;;4966641;28;20055;-82
2022/04/28 10:15:04;;;;;;;3.92;0.70;;;12.20;99.90;;;;;;4967971;28;20070;-82
2022/04/28 10:17:39;;;;;;;8.02;0.70;;;12.30;99.90;;;;;;4979501;28;20103;-85
2022/04/28 10:20:15;;;;;;;3.05;0.80;;;12.20;99.90;;;;;;4961275;28;20077;-86
2022/04/28 10:22:42;;;;;;;5.13;0.88;;;12.30;99.90;;;;;;4968006;28;20521;-84
2022/04/28 10:33:48;;;;;;;8.45;1.15;;;12.70;99.90;;;;;;4928904;29;20163;-86
2022/04/28 10:36:21;;;;;;;4.15;0.63;;;12.60;99.90;;;;;;4933417;29;20070;-90
2022/04/28 10:39:08;;;;;;;3.90;0.80;;;12.60;99.90;;;;;;4932976;29;20159;-90
2022/04/28 10:41:34;;;;;;;5.05;0.80;;;12.60;99.90;;;;;;4909819;29;20075;-84
2022/04/28 10:44:00;;;;;;;3.60;0.77;;;12.70;99.90;;;;;;4932636;29;20148;-83
2022/04/28 10:46:27;;;;;;;4.90;0.70;;;12.60;99.90;;;;;;4933519;29;20122;-89
2022/04/28 10:48:55;;;;;;;4.50;0.90;;;12.60;99.90;;;;;;4925081;29;20054;-89
2022/04/28 10:51:22;;;;;;;5.35;1.40;;;12.80;99.90;;;;;;4931872;29;20048;-89
2022/04/28 10:54:00;;;;;;;2.85;0.68;;;12.90;99.90;;;;;;4933096;29;20119;-88
2022/04/28 10:56:56;;;;;;;4.90;0.80;;;12.80;99.90;;;;;;4916711;29;20142;-88
2022/04/28 10:59:29;;;;;;;6.70;0.80;;;13.00;99.90;;;;;;4918845;29;20054;-90
2022/04/28 11:01:55;;;;;;;2.08;0.70;;;13.70;99.90;;;;;;4933070;29;20052;-92
2022/04/28 11:04:25;;;;;;;4.18;0.70;;;13.30;99.90;;;;;;4932712;29;20048;-85
2022/04/28 11:06:56;;;;;;;5.25;0.68;;;13.20;99.90;;;;;;4934109;29;20051;-88
2022/04/28 11:09:39;;;;;;;1.77;0.57;;;13.10;99.90;;;;;;4972093;28;20035;-87
2022/04/28 11:12:12;;;;;;;3.22;0.75;;;13.10;99.90;;;;;;4966362;28;20043;-86
2022/04/28 11:14:48;;;;;;;1.60;0.65;;;13.10;99.90;;;;;;4971697;28;20502;-89
2022/04/28 11:17:23;;;;;;;3.30;1.08;;;13.00;99.90;;;;;;4965508;28;20074;-84
2022/04/28 11:19:50;;;;;;;3.88;0.80;;;13.40;99.90;;;;;;4944892;29;20047;-88
2022/04/28 11:22:16;;;;;;;5.05;0.80;;;13.40;99.90;;;;;;4965603;28;20046;-88
2022/04/28 11:24:43;;;;;;;1.10;0.60;;;13.20;99.90;;;;;;4972420;28;20105;-83
2022/04/28 11:27:15;;;;;;;3.60;0.80;;;13.10;99.90;;;;;;4973128;28;20053;-84
2022/04/28 11:29:42;;;;;;;5.88;0.80;;;13.20;99.90;;;;;;4957833;28;20043;-86
2022/04/28 11:32:11;;;;;;;4.63;1.55;;;13.20;99.90;;;;;;4959791;28;20146;-84
2022/04/28 11:34:38;;;;;;;4.30;0.70;;;13.10;99.90;;;;;;4975589;28;20121;-83
2022/04/28 11:37:18;;;;;;;6.90;0.88;;;13.10;99.90;;;;;;4975084;28;20035;-84
2022/04/28 11:39:49;;;;;;;5.40;0.85;;;13.00;99.90;;;;;;4958616;28;20133;-85
2022/04/28 11:42:16;;;;;;;6.18;0.88;;;13.10;99.90;;;;;;4951902;28;20047;-85
2022/04/28 11:44:53;;;;;;;3.63;0.80;;;13.20;99.90;;;;;;4949966;28;20043;-85
2022/04/28 11:47:20;;;;;;;5.30;0.60;;;13.20;99.90;;;;;;4958986;28;20055;-83
2022/04/28 11:49:49;;;;;;;4.95;0.60;;;13.30;99.90;;;;;;4968051;28;20053;-83
2022/04/28 11:52:23;;;;;;;5.47;0.70;;;13.30;99.90;;;;;;4975450;28;20514;-84
2022/04/28 11:54:57;;;;;;;2.28;0.63;;;13.40;99.90;;;;;;4975803;28;20051;-84
2022/04/28 11:57:24;;;;;;;4.85;0.57;;;13.10;99.90;;;;;;4974857;28;20058;-83
2022/04/28 11:59:50;;;;;;;2.03;0.60;;;13.20;99.90;;;;;;4965113;28;20518;-84
2022/04/28 12:02:43;;;;;;;2.80;0.57;;;13.30;99.90;;;;;;4954089;28;20043;-84
2022/04/28 12:05:22;;;;;;;1.95;0.60;;;13.30;99.90;;;;;;4959117;28;20113;-85
2022/04/28 12:07:52;;;;;;;1.48;0.40;;;13.90;99.90;;;;;;4972885;28;20120;-84
2022/04/28 12:16:16;;;;;;;4.55;0.85;;;13.30;99.90;;;;;;4968766;28;20113;-84
2022/04/28 12:21:42;;;;;;;6.35;0.82;;;14.20;99.90;;;;;;4975182;28;20067;-90
2022/04/28 12:24:15;;;;;;;4.93;0.70;;;13.40;99.90;;;;;;4958209;28;20063;-90
2022/04/28 12:26:48;;;;;;;2.15;0.70;;;13.40;99.90;;;;;;4965580;28;20075;-91
2022/04/28 12:29:17;;;;;;;3.75;0.60;;;13.40;99.90;;;;;;4976023;28;20035;-84
2022/04/28 12:31:43;;;;;;;5.28;0.90;;;13.60;99.90;;;;;;4975511;28;20046;-85
2022/04/28 12:34:12;;;;;;;2.55;0.80;;;13.70;99.90;;;;;;4958271;28;20506;-89
2022/04/28 12:36:52;;;;;;;3.63;0.60;;;13.60;99.90;;;;;;4958595;28;20041;-91
2022/04/28 12:39:19;;;;;;;6.65;0.50;;;13.40;99.90;;;;;;4961621;28;20483;-92
2022/04/28 12:41:47;;;;;;;1.58;0.60;;;13.40;99.90;;;;;;4957513;28;20411;-86
2022/04/28 12:44:13;;;;;;;3.63;0.60;;;13.30;99.90;;;;;;4958310;28;20051;-87
2022/04/28 12:46:45;;;;;;;4.85;0.95;;;13.20;99.90;;;;;;4961731;28;20133;-84
2022/04/28 12:49:12;;;;;;;5.53;0.73;;;13.50;99.90;;;;;;4978417;28;20061;-86
2022/04/28 12:51:44;;;;;;;6.22;0.70;;;13.40;99.90;;;;;;4978245;28;20117;-86
2022/04/28 12:54:15;;;;;;;3.70;0.50;;;13.70;99.90;;;;;;4976182;28;20054;-84
2022/04/28 12:56:43;;;;;;;2.10;0.70;;;13.80;99.90;;;;;;4975975;28;20137;-83
2022/04/28 12:59:13;;;;;;;1.58;0.50;;;14.30;99.90;;;;;;4974738;28;20133;-83
2022/04/28 13:01:40;;;;;;;6.53;0.60;;;13.90;99.90;;;;;;4975948;28;20042;-83
2022/04/28 13:04:11;;;;;;;1.42;0.50;;;14.00;99.90;;;;;;4958736;28;20061;-83
2022/04/28 13:06:42;;;;;;;5.43;0.80;;;14.10;99.90;;;;;;4976068;28;20121;-83
2022/04/28 13:09:08;;;;;;;4.47;0.60;;;14.30;99.90;;;;;;4976044;28;20157;-83
2022/04/28 13:11:39;;;;;;;4.97;0.47;;;14.40;99.90;;;;;;4976050;28;20466;-83
2022/04/28 13:14:08;;;;;;;2.55;0.70;;;14.30;99.90;;;;;;4977802;28;20065;-86
2022/04/28 13:16:35;;;;;;;1.40;0.40;;;14.50;99.90;;;;;;4977660;28;20047;-84
2022/04/28 13:19:02;;;;;;;2.30;0.40;;;14.60;99.90;;;;;;4995113;28;20073;-85
2022/04/28 13:21:28;;;;;;;1.65;0.40;;;14.90;99.90;;;;;;4972141;28;20046;-83
2022/04/28 13:23:54;;;;;;;5.00;0.50;;;14.90;99.90;;;;;;4975498;28;20093;-84
2022/04/28 13:26:21;;;;;;;4.13;1.10;;;15.00;99.90;;;;;;4975734;28;20049;-85
2022/04/28 13:28:48;;;;;;;3.72;0.68;;;14.60;99.90;;;;;;4975583;28;20154;-83
2022/04/28 13:31:15;;;;;;;2.38;0.73;;;14.40;99.90;;;;;;4974114;28;20078;-84
2022/04/28 13:33:41;;;;;;;6.68;0.63;;;14.70;99.90;;;;;;4977112;28;20046;-84